Aviation Digital Data Service (ADDS)

Output produced by METARs form (0816 UTC 29 January 2015)
found at http://aviationweather.gov/adds/metars/
 
KHYA 290533Z 2906/3006 32006KT P6SM BKN025 
     FM290900 36006KT P6SM SKC 
     FM292000 00000KT P6SM FEW200 
     FM300400 17005KT P6SM BKN110